Terminal Aerodrome Forecast
Issued by NWS Huntsville, AL

Current Version | Previous Version | Text Only | Print | Product List | Glossary On
Versions: 1 2 3 4 5 6 7 8 9 10 11 12 13
000
FTUS44 KHUN 252320
TAFMSL
TAF
KMSL 252320Z 2600/2624 VRB02KT P6SM SKC
     FM260800 00000KT 4SM BR SCT025
      TEMPO 2610/2613 1SM BR SCT005
     FM261400 VRB05KT P6SM SKC=

USA.gov is the U.S. government's official web portal to all federal, state and local government web resources and services.